Time;durP1;ratioP1;P1;durP2;ratioP2;P2;SDS_P1;SDS_P2;PMS_P1;PMS_P2;Temp;Humidity;BMP_temperature;BMP_pressure;BME280_temperature;BME280_humidity;BME280_pressure;Samples;Min_cycle;Max_cycle;Signal;HPM_P1;HPM_P2
2023/11/06 00:04:38;;;;;;;1.10;0.60;;;;;;;12.48;64.74;96891.52;234197;215;137875;-65
2023/11/06 00:09:41;;;;;;;1.10;0.60;;;;;;;12.55;64.61;96897.44;234281;213;150164;-64
2023/11/06 00:14:45;;;;;;;3.00;0.60;;;;;;;12.60;64.51;96906.50;234197;215;139002;-65
2023/11/06 00:19:49;;;;;;;1.50;0.70;;;;;;;12.63;64.13;96922.73;234136;216;137673;-66
2023/11/06 00:24:52;;;;;;;0.50;0.50;;;;;;;12.58;64.03;96934.41;234014;214;150314;-64
2023/11/06 00:29:55;;;;;;;2.30;0.70;;;;;;;12.58;64.03;96942.52;234142;216;139642;-63
2023/11/06 00:34:59;;;;;;;1.00;0.50;;;;;;;12.59;64.14;96951.93;234179;216;139574;-65
2023/11/06 00:40:03;;;;;;;2.10;0.50;;;;;;;12.62;64.18;96960.34;234362;214;150085;-65
2023/11/06 00:45:07;;;;;;;0.90;0.40;;;;;;;12.64;64.07;96968.70;234100;216;138841;-65
2023/11/06 00:50:10;;;;;;;0.60;0.40;;;;;;;12.66;63.99;96983.92;234080;216;138635;-65
2023/11/06 00:55:15;;;;;;;0.90;0.40;;;;;;;12.68;64.02;96994.04;234040;216;149766;-65
2023/11/06 01:00:21;;;;;;;1.40;0.40;;;;;;;12.71;63.90;97005.92;234103;214;139821;-66
2023/11/06 01:05:25;;;;;;;1.20;0.50;;;;;;;12.68;64.02;97012.02;234093;213;137274;-66
2023/11/06 01:10:29;;;;;;;0.40;0.40;;;;;;;12.70;64.12;97018.40;234064;213;149090;-65
2023/11/06 01:15:42;;;;;;;0.90;0.40;;;;;;;12.74;63.86;97027.97;234268;215;138893;-65
2023/11/06 01:20:45;;;;;;;0.50;0.40;;;;;;;12.75;64.41;97039.45;234121;215;138072;-66
2023/11/06 01:25:49;;;;;;;0.80;0.30;;;;;;;12.72;65.31;97046.73;234193;216;149288;-66
2023/11/06 01:30:52;;;;;;;1.90;0.50;;;;;;;12.70;65.75;97053.29;234256;214;139378;-68
2023/11/06 01:35:55;;;;;;;3.10;0.50;;;;;;;12.74;65.71;97063.01;234089;216;137536;-68
2023/11/06 01:40:59;;;;;;;0.80;0.30;;;;;;;12.79;65.78;97073.06;234230;214;149609;-66
2023/11/06 01:46:04;;;;;;;0.70;0.50;;;;;;;12.79;65.36;97079.37;234377;216;139851;-68
2023/11/06 01:51:08;;;;;;;0.90;0.30;;;;;;;12.79;65.13;97097.89;234235;215;138275;-68
2023/11/06 01:56:12;;;;;;;0.70;0.40;;;;;;;12.77;65.51;97111.33;234222;216;150009;-69
2023/11/06 02:01:16;;;;;;;0.60;0.60;;;;;;;12.70;66.28;97113.09;234275;216;138645;-69
2023/11/06 02:06:19;;;;;;;0.60;0.40;;;;;;;12.66;66.29;97126.79;234267;214;138059;-69
2023/11/06 02:11:22;;;;;;;1.00;0.50;;;;;;;12.68;65.68;97134.51;234266;216;149455;-67
2023/11/06 02:16:26;;;;;;;0.80;0.40;;;;;;;12.67;64.83;97143.79;234228;216;138780;-68
2023/11/06 02:21:29;;;;;;;2.00;0.50;;;;;;;12.68;63.91;97148.91;234295;216;136956;-68
2023/11/06 02:26:32;;;;;;;0.30;0.30;;;;;;;12.68;63.31;97169.74;234194;217;149698;-68
2023/11/06 02:31:35;;;;;;;0.30;0.30;;;;;;;12.68;63.06;97165.98;234184;216;138764;-68
2023/11/06 02:36:40;;;;;;;0.80;0.40;;;;;;;12.70;62.78;97175.73;234175;216;137171;-68
2023/11/06 02:41:43;;;;;;;0.40;0.30;;;;;;;12.71;62.49;97193.06;234163;214;150022;-66
2023/11/06 02:46:46;;;;;;;1.70;0.50;;;;;;;12.72;62.22;97207.05;234236;214;139079;-67
2023/11/06 02:51:51;;;;;;;0.70;0.40;;;;;;;12.74;62.34;97210.93;234359;214;137907;-67
2023/11/06 02:56:55;;;;;;;0.80;0.40;;;;;;;12.73;62.16;97228.20;234133;216;149867;-67
2023/11/06 03:01:58;;;;;;;0.40;0.30;;;;;;;12.69;61.56;97238.09;234124;216;139269;-67
2023/11/06 03:07:01;;;;;;;0.40;0.30;;;;;;;12.69;61.71;97245.34;234161;216;138778;-66
2023/11/06 03:12:07;;;;;;;0.90;0.40;;;;;;;12.67;61.56;97260.14;234268;210;149869;-66
2023/11/06 03:17:11;;;;;;;2.00;0.50;;;;;;;12.67;61.43;97272.61;234164;214;140279;-67
2023/11/06 03:22:15;;;;;;;0.60;0.40;;;;;;;12.66;60.97;97278.98;234306;216;138393;-67
2023/11/06 03:27:18;;;;;;;1.00;0.50;;;;;;;12.62;60.88;97285.58;234155;216;149229;-67
2023/11/06 03:32:22;;;;;;;0.70;0.30;;;;;;;12.59;60.60;97299.09;234179;217;139775;-64
2023/11/06 03:37:26;;;;;;;2.10;0.40;;;;;;;12.55;60.29;97318.61;234298;216;140363;-65
2023/11/06 03:42:29;;;;;;;1.70;0.50;;;;;;;12.54;60.32;97325.69;234186;214;149190;-65
2023/11/06 03:47:33;;;;;;;1.80;0.50;;;;;;;12.52;60.40;97342.04;234129;216;139008;-65
2023/11/06 03:52:36;;;;;;;1.70;0.50;;;;;;;12.50;60.03;97355.00;234242;216;137992;-66
2023/11/06 03:57:39;;;;;;;0.80;0.40;;;;;;;12.47;59.91;97361.53;234219;216;148439;-66
2023/11/06 04:02:44;;;;;;;1.10;0.50;;;;;;;12.43;59.58;97370.13;234158;216;139630;-67
2023/11/06 04:07:47;;;;;;;1.00;0.40;;;;;;;12.39;59.46;97378.94;234169;216;137006;-67
2023/11/06 04:12:54;;;;;;;2.40;0.60;;;;;;;12.35;59.03;97391.75;234235;216;149961;-66
2023/11/06 04:17:57;;;;;;;1.40;0.50;;;;;;;12.35;58.97;97396.32;234174;216;138736;-67
2023/11/06 04:23:01;;;;;;;1.10;0.50;;;;;;;12.35;58.90;97408.46;234256;216;138072;-66
2023/11/06 04:28:08;;;;;;;0.60;0.60;;;;;;;12.34;58.42;97421.16;234379;216;150684;-67
2023/11/06 04:33:11;;;;;;;3.20;0.70;;;;;;;12.34;58.37;97431.83;234204;216;140390;-66
2023/11/06 04:38:14;;;;;;;2.60;0.70;;;;;;;12.34;58.04;97441.30;234178;216;137973;-67
2023/11/06 04:43:18;;;;;;;0.70;0.30;;;;;;;12.31;57.80;97451.13;234164;213;149890;-67
2023/11/06 04:48:21;;;;;;;0.80;0.50;;;;;;;12.28;57.55;97458.48;234163;216;138932;-69
2023/11/06 04:53:24;;;;;;;1.00;0.50;;;;;;;12.25;57.50;97473.08;234262;216;138695;-68
2023/11/06 04:58:27;;;;;;;1.20;0.60;;;;;;;12.24;57.25;97478.34;234186;216;149055;-69
2023/11/06 05:03:33;;;;;;;2.70;0.90;;;;;;;12.21;57.08;97486.58;234240;216;140099;-69
2023/11/06 05:08:36;;;;;;;3.10;0.70;;;;;;;12.17;56.80;97491.73;234213;216;138547;-71
2023/11/06 05:13:41;;;;;;;2.10;0.60;;;;;;;12.12;56.38;97503.61;234156;213;149710;-65
2023/11/06 05:18:44;;;;;;;2.50;0.50;;;;;;;12.05;56.45;97512.24;234145;216;140116;-67
2023/11/06 05:23:48;;;;;;;1.00;0.60;;;;;;;12.00;56.39;97516.22;234175;215;137416;-67
2023/11/06 05:28:51;;;;;;;1.70;0.70;;;;;;;11.96;56.18;97519.63;234301;215;149524;-66
2023/11/06 05:33:55;;;;;;;2.80;0.60;;;;;;;11.93;56.34;97530.77;234289;216;138834;-67
2023/11/06 05:38:59;;;;;;;1.50;0.80;;;;;;;11.90;55.85;97533.58;234275;216;138453;-67
2023/11/06 05:44:02;;;;;;;2.00;0.60;;;;;;;11.88;55.94;97546.88;234095;216;149915;-66
2023/11/06 05:49:05;;;;;;;42.80;35.40;;;;;;;11.87;55.81;97554.27;234135;216;139050;-66
2023/11/06 05:54:08;;;;;;;2.10;0.90;;;;;;;11.91;55.71;97564.95;234173;213;138422;-67
2023/11/06 05:59:12;;;;;;;6.70;4.30;;;;;;;11.91;55.43;97582.01;234206;216;149315;-67
2023/11/06 06:04:15;;;;;;;3.40;1.30;;;;;;;11.90;55.42;97593.60;234243;217;139837;-66
2023/11/06 06:09:19;;;;;;;2.50;0.70;;;;;;;11.89;55.37;97595.65;234212;216;137656;-66
2023/11/06 06:14:22;;;;;;;6.70;0.80;;;;;;;11.89;55.11;97603.67;234258;212;149457;-66
2023/11/06 06:19:25;;;;;;;1.50;0.60;;;;;;;11.91;55.06;97617.52;234100;214;141107;-66
2023/11/06 06:24:28;;;;;;;3.60;0.70;;;;;;;11.94;54.90;97625.28;234238;216;137194;-67
2023/11/06 06:29:32;;;;;;;1.80;0.70;;;;;;;11.95;54.65;97626.93;234179;216;149051;-67
2023/11/06 06:34:35;;;;;;;19.20;11.70;;;;;;;11.97;54.43;97634.38;234149;216;139376;-67
2023/11/06 06:39:42;;;;;;;18.40;12.80;;;;;;;12.03;54.49;97644.30;234312;216;137621;-67
2023/11/06 06:44:46;;;;;;;4.30;1.10;;;;;;;12.09;54.50;97649.46;234331;216;149449;-69
2023/11/06 06:49:49;;;;;;;3.40;1.00;;;;;;;12.15;54.05;97656.98;234177;214;139218;-70
2023/11/06 06:54:52;;;;;;;1.90;0.80;;;;;;;12.18;53.56;97667.21;234178;215;137038;-68
2023/11/06 06:59:55;;;;;;;3.80;1.90;;;;;;;12.22;53.94;97665.20;234211;214;150946;-66
2023/11/06 07:04:59;;;;;;;5.00;1.10;;;;;;;12.29;53.76;97670.39;234218;216;138587;-66
2023/11/06 07:10:03;;;;;;;3.00;0.90;;;;;;;12.36;53.64;97673.54;234269;216;138454;-66
2023/11/06 07:15:06;;;;;;;2.60;0.80;;;;;;;12.44;53.78;97676.72;234182;216;149536;-68
2023/11/06 07:20:15;;;;;;;8.20;2.60;;;;;;;12.48;53.21;97689.50;234226;215;138812;-64
2023/11/06 07:25:19;;;;;;;1.50;0.60;;;;;;;12.49;53.48;97693.27;234162;216;137215;-67
2023/11/06 07:30:23;;;;;;;39.50;27.30;;;;;;;12.51;53.48;97701.67;234182;215;150686;-67
2023/11/06 07:35:26;;;;;;;4.10;1.50;;;;;;;12.59;53.39;97711.83;234114;210;139127;-64
2023/11/06 07:40:29;;;;;;;2.40;0.90;;;;;;;12.63;53.29;97713.21;234286;216;138130;-64
2023/11/06 07:45:33;;;;;;;4.80;1.30;;;;;;;12.68;53.27;97716.64;234248;214;149555;-67
2023/11/06 07:50:36;;;;;;;4.70;1.20;;;;;;;12.76;53.32;97722.11;234121;216;140557;-64
2023/11/06 07:55:40;;;;;;;6.70;1.00;;;;;;;12.85;53.40;97720.55;234143;214;138267;-66
2023/11/06 08:00:43;;;;;;;24.10;18.10;;;;;;;13.01;53.46;97734.77;234146;216;149422;-65
2023/11/06 08:05:53;;;;;;;5.70;1.60;;;;;;;13.19;52.48;97740.95;234222;214;138967;-65
2023/11/06 08:10:56;;;;;;;3.70;1.60;;;;;;;13.29;52.36;97749.55;234188;213;137038;-64
2023/11/06 08:16:00;;;;;;;4.40;0.90;;;;;;;13.37;51.97;97748.77;234334;216;149389;-65
2023/11/06 08:21:04;;;;;;;3.60;1.00;;;;;;;13.44;51.89;97761.25;234148;214;138718;-66
2023/11/06 08:26:07;;;;;;;4.20;1.00;;;;;;;13.44;51.78;97767.25;234163;215;137798;-66
2023/11/06 08:31:10;;;;;;;3.20;0.80;;;;;;;13.48;51.63;97782.80;234111;213;149773;-63
2023/11/06 08:36:14;;;;;;;3.90;1.50;;;;;;;13.49;51.99;97797.13;234148;216;139518;-64
2023/11/06 08:41:17;;;;;;;2.80;0.90;;;;;;;13.48;52.05;97804.86;234175;215;138578;-64
2023/11/06 08:46:21;;;;;;;2.20;0.80;;;;;;;13.43;51.93;97821.39;234295;213;150906;-62
2023/11/06 08:51:25;;;;;;;3.10;0.90;;;;;;;13.48;52.35;97830.71;234250;209;139321;-67
2023/11/06 08:56:29;;;;;;;3.40;0.90;;;;;;;13.55;51.88;97846.30;234182;215;137490;-66
2023/11/06 09:01:33;;;;;;;2.90;0.70;;;;;;;13.58;51.30;97852.03;234102;217;150548;-64
2023/11/06 09:06:40;;;;;;;3.50;0.90;;;;;;;13.58;51.45;97865.11;234200;216;140179;-64
2023/11/06 09:11:47;;;;;;;59.40;39.70;;;;;;;13.57;51.50;97875.39;234261;215;137027;-62
2023/11/06 09:16:58;;;;;;;2.60;1.00;;;;;;;13.60;51.21;97886.50;233980;216;149387;-66
2023/11/06 09:22:03;;;;;;;41.10;29.10;;;;;;;13.63;51.48;97899.33;234116;213;138828;-68
2023/11/06 09:27:06;;;;;;;11.90;1.90;;;;;;;13.71;51.39;97904.50;234103;210;138507;-66
2023/11/06 09:32:10;;;;;;;9.30;1.10;;;;;;;13.67;50.94;97906.98;233827;213;149605;-68
2023/11/06 09:37:15;;;;;;;156.00;107.70;;;;;;;13.62;50.64;97911.59;234060;211;138752;-67
2023/11/06 09:42:18;;;;;;;7.00;3.60;;;;;;;13.68;51.04;97913.73;234109;215;139144;-64
2023/11/06 09:47:21;;;;;;;146.70;112.80;;;;;;;13.85;50.76;97905.17;234060;213;150533;-66
2023/11/06 09:52:26;;;;;;;7.10;1.50;;;;;;;13.95;49.94;97931.79;234032;213;139058;-70
2023/11/06 09:57:31;;;;;;;1.30;0.80;;;;;;;13.93;49.35;97928.98;234179;214;137970;-67
2023/11/06 10:02:34;;;;;;;1.70;0.90;;;;;;;13.97;49.10;97932.20;234092;214;150561;-66
2023/11/06 10:07:40;;;;;;;2.10;0.70;;;;;;;14.08;49.05;97936.71;234072;214;139187;-67
2023/11/06 10:12:43;;;;;;;2.40;0.70;;;;;;;14.14;49.20;97928.28;234062;214;137410;-65
2023/11/06 10:17:46;;;;;;;3.50;0.90;;;;;;;14.19;49.22;97940.13;234131;212;150762;-68
2023/11/06 10:22:51;;;;;;;4.20;0.90;;;;;;;14.21;49.44;97934.91;234005;214;138845;-70
2023/11/06 10:27:57;;;;;;;2.10;0.70;;;;;;;14.34;48.76;97940.62;234223;214;137213;-65
2023/11/06 10:33:14;;;;;;;3.10;0.60;;;;;;;14.45;48.60;97946.55;234040;215;150937;-70
2023/11/06 10:38:37;;;;;;;2.90;0.80;;;;;;;14.57;48.23;97949.70;234097;214;139616;-67
2023/11/06 10:43:41;;;;;;;2.40;0.60;;;;;;;14.66;48.13;97949.08;234128;214;137958;-64
2023/11/06 10:49:17;;;;;;;2.70;0.80;;;;;;;14.85;48.17;97949.11;234021;215;149832;-67
2023/11/06 10:54:22;;;;;;;3.00;0.70;;;;;;;15.00;47.44;97954.02;234093;214;138743;-70
2023/11/06 10:59:29;;;;;;;2.50;0.90;;;;;;;15.07;46.66;97966.08;234122;213;138629;-66
2023/11/06 11:04:33;;;;;;;;;;;;;;;15.13;46.84;97972.91;234165;213;149407;-68
2023/11/06 11:09:36;;;;;;;5.20;1.00;;;;;;;15.12;46.67;97989.38;234204;214;138824;-65
2023/11/06 11:14:40;;;;;;;2.60;0.70;;;;;;;15.14;46.89;97989.71;234125;214;138192;-67
2023/11/06 11:19:43;;;;;;;1.40;0.60;;;;;;;15.28;46.69;97990.85;234045;214;150460;-66
2023/11/06 11:24:54;;;;;;;2.20;0.60;;;;;;;15.36;46.29;97997.96;234018;210;141098;-68
2023/11/06 11:30:00;;;;;;;123.90;91.50;;;;;;;15.19;46.42;98009.97;234133;216;137472;-67
2023/11/06 11:35:10;;;;;;;4.00;1.80;;;;;;;15.11;46.64;98015.43;234163;215;149317;-68
2023/11/06 11:40:13;;;;;;;7.90;1.10;;;;;;;15.08;46.68;98016.74;233985;216;140278;-64
2023/11/06 11:45:32;;;;;;;6.20;0.80;;;;;;;15.26;46.48;98012.66;234250;216;137926;-66
2023/11/06 11:50:41;;;;;;;2.00;0.70;;;;;;;15.46;45.99;98018.58;234200;215;149381;-66
2023/11/06 11:55:46;;;;;;;4.30;0.70;;;;;;;15.41;45.69;98027.53;234166;214;139566;-63
2023/11/06 12:00:51;;;;;;;2.10;0.80;;;;;;;15.22;45.93;98045.83;234192;216;137971;-65
2023/11/06 12:05:57;;;;;;;1.40;0.60;;;;;;;15.06;46.25;98041.23;234174;215;150350;-68
2023/11/06 12:11:09;;;;;;;2.10;0.60;;;;;;;14.91;46.52;98046.27;234127;214;140472;-64
2023/11/06 12:16:12;;;;;;;2.40;0.60;;;;;;;14.88;47.26;98051.23;234256;215;138324;-67
2023/11/06 12:21:15;;;;;;;3.50;0.90;;;;;;;14.79;47.10;98066.54;234244;216;149032;-63
2023/11/06 12:26:19;;;;;;;3.20;1.30;;;;;;;14.72;47.47;98059.85;234218;214;139597;-64
2023/11/06 12:31:25;;;;;;;2.80;0.90;;;;;;;14.80;47.47;98064.65;234174;214;137978;-65
2023/11/06 12:36:31;;;;;;;2.80;0.50;;;;;;;14.72;46.78;98076.27;234146;216;148106;-67
2023/11/06 12:41:39;;;;;;;1.90;0.70;;;;;;;14.67;46.45;98085.66;234116;215;139331;-64
2023/11/06 12:46:45;;;;;;;3.80;1.10;;;;;;;14.65;46.80;98087.11;234196;214;137538;-65
2023/11/06 12:51:54;;;;;;;5.90;1.00;;;;;;;14.68;47.16;98087.38;234360;216;149157;-64
2023/11/06 12:56:57;;;;;;;2.50;0.80;;;;;;;14.75;47.35;98095.86;234064;214;144350;-63
2023/11/06 13:02:02;;;;;;;3.60;1.00;;;;;;;14.78;47.40;98092.55;234144;215;139728;-65
2023/11/06 13:07:06;;;;;;;2.90;0.90;;;;;;;14.76;47.80;98097.58;234117;216;149335;-67
2023/11/06 13:12:10;;;;;;;4.00;1.10;;;;;;;14.76;47.95;98104.11;234108;215;139007;-66
2023/11/06 13:17:13;;;;;;;4.80;1.10;;;;;;;14.82;48.04;98112.54;234139;216;138085;-65
2023/11/06 13:22:17;;;;;;;3.60;1.00;;;;;;;14.89;48.25;98113.60;234294;215;149401;-67
2023/11/06 13:27:21;;;;;;;2.80;1.00;;;;;;;14.86;48.07;98126.25;234161;216;141382;-70
2023/11/06 13:32:26;;;;;;;3.40;0.90;;;;;;;14.76;47.97;98129.31;233970;209;137247;-66
2023/11/06 13:37:29;;;;;;;2.30;1.00;;;;;;;14.69;48.48;98131.98;234081;214;149929;-68
2023/11/06 13:42:32;;;;;;;2.50;1.10;;;;;;;14.65;48.45;98136.81;234143;209;139117;-67
2023/11/06 13:47:39;;;;;;;1.70;1.10;;;;;;;14.65;48.76;98141.91;234114;214;138057;-67
2023/11/06 13:52:43;;;;;;;4.10;1.10;;;;;;;14.70;48.65;98141.30;234115;213;149332;-66
2023/11/06 13:57:46;;;;;;;3.80;1.20;;;;;;;14.76;48.81;98152.75;234304;213;139061;-67
2023/11/06 14:02:50;;;;;;;3.80;1.10;;;;;;;14.76;48.66;98156.97;234104;214;137158;-69
2023/11/06 14:07:53;;;;;;;3.30;1.40;;;;;;;14.73;48.64;98161.35;234114;210;149127;-67
2023/11/06 14:12:57;;;;;;;6.40;1.40;;;;;;;14.69;48.72;98166.27;234112;214;138690;-66
2023/11/06 14:18:03;;;;;;;3.70;1.00;;;;;;;14.66;48.63;98168.42;233996;214;138434;-66
2023/11/06 14:23:07;;;;;;;5.60;1.30;;;;;;;14.64;48.62;98169.88;234066;213;149406;-64
2023/11/06 14:28:10;;;;;;;4.50;1.20;;;;;;;14.61;48.90;98174.77;234317;210;137930;-66
2023/11/06 14:33:13;;;;;;;5.60;1.60;;;;;;;14.60;48.97;98185.04;234093;213;138218;-66
2023/11/06 14:38:17;;;;;;;6.30;1.50;;;;;;;14.59;49.15;98182.98;234024;209;149159;-66
2023/11/06 14:43:22;;;;;;;6.00;2.80;;;;;;;14.61;49.21;98175.91;234037;214;138866;-66
2023/11/06 14:48:26;;;;;;;5.60;1.70;;;;;;;14.62;49.40;98169.84;234137;212;138159;-63
2023/11/06 14:53:29;;;;;;;4.80;1.70;;;;;;;14.64;49.47;98169.57;234049;209;150320;-65
2023/11/06 14:58:42;;;;;;;7.30;1.90;;;;;;;14.64;49.45;98187.05;234074;213;138858;-64
2023/11/06 15:03:45;;;;;;;4.40;1.60;;;;;;;14.61;49.62;98189.79;234255;213;137248;-66
2023/11/06 15:08:49;;;;;;;6.20;2.00;;;;;;;14.60;49.81;98191.17;234117;210;150838;-66
2023/11/06 15:13:53;;;;;;;4.70;1.50;;;;;;;14.57;49.80;98193.52;234080;214;140045;-65
2023/11/06 15:18:59;;;;;;;5.40;2.10;;;;;;;14.53;49.88;98198.07;234113;214;137089;-66
2023/11/06 15:24:03;;;;;;;4.90;2.10;;;;;;;14.50;50.07;98203.90;234135;213;149514;-67
2023/11/06 15:29:08;;;;;;;5.50;1.90;;;;;;;14.49;50.10;98200.01;234063;214;151447;-65
2023/11/06 15:34:12;;;;;;;;;;;;;;;14.47;50.15;98204.29;234282;213;137465;-63
2023/11/06 15:39:15;;;;;;;4.50;2.00;;;;;;;14.41;50.30;98222.80;234177;214;149893;-65
2023/11/06 15:44:18;;;;;;;4.40;1.80;;;;;;;14.40;50.48;98244.84;234019;209;138822;-66
2023/11/06 15:49:21;;;;;;;5.80;2.40;;;;;;;14.37;51.19;98286.52;234099;209;137380;-66
2023/11/06 15:54:25;;;;;;;13.60;9.10;;;;;;;14.22;54.37;98315.86;234114;213;151871;-66
2023/11/06 15:59:29;;;;;;;3.10;1.40;;;;;;;13.94;55.43;98292.89;234080;214;139448;-66
2023/11/06 16:04:33;;;;;;;3.00;1.50;;;;;;;13.78;56.00;98287.00;233999;214;138827;-66
2023/11/06 16:09:39;;;;;;;4.20;1.80;;;;;;;13.69;56.49;98289.72;234172;210;149640;-67
2023/11/06 16:14:43;;;;;;;4.90;1.90;;;;;;;13.65;56.86;98286.29;234139;209;138973;-66
2023/11/06 16:19:46;;;;;;;2.90;1.50;;;;;;;13.62;57.20;98293.00;234069;214;137157;-66
2023/11/06 16:24:50;;;;;;;5.40;1.90;;;;;;;13.56;57.45;98294.21;234071;214;149201;-67
2023/11/06 16:29:53;;;;;;;5.70;1.80;;;;;;;13.52;57.79;98298.32;234076;214;139536;-67
2023/11/06 16:34:56;;;;;;;5.70;1.80;;;;;;;13.50;58.01;98307.02;234072;213;138464;-67
2023/11/06 16:40:00;;;;;;;3.20;1.90;;;;;;;13.46;58.41;98311.23;234312;213;149475;-67
2023/11/06 16:45:04;;;;;;;4.80;2.00;;;;;;;13.41;58.77;98315.09;234182;213;139492;-68
2023/11/06 16:50:08;;;;;;;5.80;2.30;;;;;;;13.36;59.16;98320.86;234126;214;137994;-67
2023/11/06 16:55:11;;;;;;;4.40;2.00;;;;;;;13.34;59.40;98327.50;234094;214;150418;-67
2023/11/06 17:00:15;;;;;;;5.10;2.20;;;;;;;13.30;59.56;98332.85;234087;210;139179;-65
2023/11/06 17:05:19;;;;;;;335.80;260.60;;;;;;;13.24;59.73;98332.01;234148;210;137522;-65
2023/11/06 17:10:22;;;;;;;44.50;29.40;;;;;;;13.27;60.32;98336.75;234167;213;149423;-65
2023/11/06 17:15:27;;;;;;;10.60;5.00;;;;;;;13.32;59.88;98341.05;234207;209;139869;-65
2023/11/06 17:20:32;;;;;;;5.90;3.20;;;;;;;13.29;59.82;98344.14;234107;213;138516;-67
2023/11/06 17:25:35;;;;;;;8.10;3.10;;;;;;;13.32;59.72;98342.43;234053;214;149130;-67
2023/11/06 17:30:39;;;;;;;5.80;3.20;;;;;;;13.36;59.43;98349.59;234075;214;138843;-66
2023/11/06 17:35:42;;;;;;;5.50;3.50;;;;;;;13.32;59.27;98359.04;234070;209;137822;-68
2023/11/06 17:40:45;;;;;;;7.00;3.30;;;;;;;13.23;59.28;98369.70;234108;209;149314;-66
2023/11/06 17:45:51;;;;;;;10.80;5.80;;;;;;;13.20;59.24;98384.55;234255;209;139092;-66
2023/11/06 17:50:55;;;;;;;7.70;3.80;;;;;;;13.24;59.11;98387.98;234191;214;140603;-66
2023/11/06 17:55:58;;;;;;;8.30;4.10;;;;;;;13.24;59.02;98399.00;234176;213;149504;-66
2023/11/06 18:01:03;;;;;;;7.60;4.10;;;;;;;13.25;58.93;98398.23;234126;209;139483;-66
2023/11/06 18:06:07;;;;;;;8.70;4.40;;;;;;;13.16;59.28;98400.73;233836;212;141032;-66
2023/11/06 18:11:11;;;;;;;8.40;4.60;;;;;;;13.13;59.47;98404.05;233961;208;149008;-64
2023/11/06 18:16:14;;;;;;;11.30;7.50;;;;;;;13.11;59.65;98413.97;234234;209;139742;-64
2023/11/06 18:21:18;;;;;;;11.60;5.60;;;;;;;13.03;59.79;98420.17;234187;214;137434;-62
2023/11/06 18:26:21;;;;;;;168.40;132.00;;;;;;;13.00;60.69;98428.55;234107;213;151095;-63
2023/11/06 18:31:26;;;;;;;21.80;13.70;;;;;;;13.02;60.37;98435.35;234073;209;140083;-64
2023/11/06 18:36:31;;;;;;;11.10;5.30;;;;;;;12.86;60.40;98446.44;234175;209;139019;-64
2023/11/06 18:41:38;;;;;;;10.30;5.70;;;;;;;12.70;60.74;98455.23;234116;209;149473;-63
2023/11/06 18:46:41;;;;;;;9.70;5.60;;;;;;;12.56;61.33;98466.12;234115;212;139870;-63
2023/11/06 18:51:44;;;;;;;21.50;13.60;;;;;;;12.43;62.25;98476.28;234318;209;138130;-64
2023/11/06 18:56:48;;;;;;;12.00;5.90;;;;;;;12.34;62.92;98482.45;234185;209;149732;-64
2023/11/06 19:01:51;;;;;;;9.40;5.40;;;;;;;12.16;62.65;98490.09;234124;213;140857;-63
2023/11/06 19:06:54;;;;;;;13.00;5.90;;;;;;;12.04;63.24;98500.41;234155;216;137948;-64
2023/11/06 19:12:01;;;;;;;14.50;7.60;;;;;;;11.96;63.44;98506.73;234176;208;151325;-65
2023/11/06 19:17:06;;;;;;;21.90;8.00;;;;;;;11.88;64.48;98509.66;234199;208;139560;-64
2023/11/06 19:22:09;;;;;;;12.10;6.20;;;;;;;11.83;64.33;98514.11;234249;212;141609;-64
2023/11/06 19:27:12;;;;;;;323.20;240.50;;;;;;;11.70;64.74;98512.92;234081;214;150327;-66
2023/11/06 19:32:16;;;;;;;60.50;44.70;;;;;;;11.78;65.34;98513.26;233837;213;138875;-64
2023/11/06 19:37:19;;;;;;;10.00;7.00;;;;;;;11.74;64.82;98514.05;234143;212;140249;-65
2023/11/06 19:42:23;;;;;;;14.20;7.20;;;;;;;11.65;64.71;98520.09;234143;213;150417;-64
2023/11/06 19:47:27;;;;;;;12.50;7.00;;;;;;;11.52;64.74;98520.15;234151;208;139105;-65
2023/11/06 19:52:30;;;;;;;18.30;8.00;;;;;;;11.37;64.96;98525.70;234132;209;137097;-64
2023/11/06 19:57:34;;;;;;;16.70;7.60;;;;;;;11.27;65.15;98527.86;234299;209;149157;-65
2023/11/06 20:02:37;;;;;;;12.00;6.80;;;;;;;11.20;65.46;98525.20;234155;209;138914;-64
2023/11/06 20:07:44;;;;;;;11.40;6.50;;;;;;;11.12;65.64;98526.50;234095;208;138418;-63
2023/11/06 20:12:47;;;;;;;11.50;6.80;;;;;;;11.11;65.75;98527.23;233987;208;149063;-63
2023/11/06 20:17:52;;;;;;;10.80;6.70;;;;;;;11.12;65.70;98527.16;234131;214;139467;-64
2023/11/06 20:22:56;;;;;;;16.90;7.10;;;;;;;11.10;65.69;98528.32;234232;214;139654;-65
2023/11/06 20:28:00;;;;;;;14.50;8.50;;;;;;;11.06;65.71;98526.52;234284;209;149245;-65
2023/11/06 20:33:04;;;;;;;19.70;9.40;;;;;;;11.08;65.52;98532.09;234137;214;140141;-64
2023/11/06 20:38:07;;;;;;;22.30;9.60;;;;;;;11.18;65.25;98537.71;233789;214;137897;-64
2023/11/06 20:43:10;;;;;;;18.70;9.90;;;;;;;11.29;64.95;98538.34;234194;208;150210;-63
2023/11/06 20:48:14;;;;;;;21.80;10.50;;;;;;;11.41;64.59;98539.21;234172;214;140009;-62
2023/11/06 20:53:18;;;;;;;18.40;10.30;;;;;;;11.49;64.28;98542.42;234219;209;137494;-63
2023/11/06 20:58:21;;;;;;;24.50;14.20;;;;;;;11.52;64.10;98540.59;234357;214;149302;-62
2023/11/06 21:03:25;;;;;;;22.20;11.50;;;;;;;11.52;63.92;98537.19;234158;208;138854;-63
2023/11/06 21:08:29;;;;;;;19.90;11.50;;;;;;;11.51;63.86;98543.98;234143;213;137873;-63
2023/11/06 21:13:32;;;;;;;23.40;10.70;;;;;;;11.47;63.81;98551.27;234181;209;150246;-64
2023/11/06 21:18:36;;;;;;;21.40;11.80;;;;;;;11.44;63.78;98562.67;234175;209;140161;-65
2023/11/06 21:23:39;;;;;;;23.40;11.10;;;;;;;11.41;63.81;98569.80;234216;214;137386;-64
2023/11/06 21:28:42;;;;;;;22.70;11.40;;;;;;;11.36;63.89;98572.67;234201;214;149982;-64
2023/11/06 21:33:45;;;;;;;21.20;11.40;;;;;;;11.19;64.07;98579.05;234211;212;138045;-62
2023/11/06 21:38:50;;;;;;;25.00;10.50;;;;;;;10.98;64.39;98589.73;234138;213;138459;-63
2023/11/06 21:43:53;;;;;;;26.30;11.90;;;;;;;10.75;64.65;98590.68;234180;214;150094;-64
2023/11/06 21:48:57;;;;;;;22.80;11.10;;;;;;;10.47;65.31;98590.85;234181;213;139365;-63
2023/11/06 21:54:00;;;;;;;23.10;11.70;;;;;;;10.36;65.94;98595.67;234110;215;137409;-65
2023/11/06 21:59:04;;;;;;;25.70;11.80;;;;;;;10.27;66.05;98600.52;234160;213;149100;-65
2023/11/06 22:04:07;;;;;;;20.90;10.10;;;;;;;10.16;66.19;98601.63;234183;214;139965;-65
2023/11/06 22:09:11;;;;;;;21.70;10.20;;;;;;;10.06;66.38;98603.52;234229;213;137563;-66
2023/11/06 22:14:14;;;;;;;19.80;10.70;;;;;;;10.01;66.80;98607.60;234143;209;150265;-66
2023/11/06 22:19:22;;;;;;;20.10;10.90;;;;;;;10.05;66.76;98613.70;234140;214;140204;-66
2023/11/06 22:24:26;;;;;;;21.60;10.90;;;;;;;10.05;66.81;98617.74;234110;214;138418;-65
2023/11/06 22:29:29;;;;;;;20.80;10.70;;;;;;;9.97;66.84;98615.48;234138;212;149281;-65
2023/11/06 22:34:34;;;;;;;15.60;10.40;;;;;;;9.91;66.96;98615.87;234106;209;139288;-63
2023/11/06 22:39:39;;;;;;;21.00;10.80;;;;;;;9.80;66.98;98619.45;234294;213;138034;-64
2023/11/06 22:44:42;;;;;;;19.30;11.20;;;;;;;9.71;67.13;98625.33;234102;210;149664;-64
2023/11/06 22:49:45;;;;;;;16.80;9.80;;;;;;;9.65;67.32;98623.92;233794;213;140543;-64
2023/11/06 22:54:49;;;;;;;19.90;10.30;;;;;;;9.60;67.33;98623.92;234117;212;138183;-64
2023/11/06 22:59:52;;;;;;;24.40;10.80;;;;;;;9.43;67.35;98624.11;234231;216;149305;-64
2023/11/06 23:04:56;;;;;;;20.20;10.80;;;;;;;9.31;67.76;98628.42;234214;214;138925;-64
2023/11/06 23:09:59;;;;;;;23.40;10.60;;;;;;;9.25;67.94;98629.52;234345;216;138137;-65
2023/11/06 23:15:05;;;;;;;17.10;10.20;;;;;;;9.24;68.08;98628.17;233972;216;150359;-65
2023/11/06 23:20:09;;;;;;;19.40;10.90;;;;;;;9.23;68.10;98636.70;234251;216;140335;-64
2023/11/06 23:25:12;;;;;;;21.40;10.70;;;;;;;9.25;68.18;98650.92;234291;216;140106;-63
2023/11/06 23:30:20;;;;;;;21.40;10.40;;;;;;;9.29;68.33;98651.93;234296;216;151611;-64